createdAt,value
2023-05-09T00:01:00.119Z,70.93
2023-05-09T00:02:00.334Z,67.79
2023-05-09T00:03:00.141Z,73.78
2023-05-09T00:04:00.076Z,74.24
2023-05-09T00:05:00.006Z,72.76
2023-05-09T00:06:00.054Z,74.29
2023-05-09T00:07:00.225Z,69.83
2023-05-09T00:08:00.048Z,68.55
2023-05-09T00:09:00.000Z,73.52
2023-05-09T00:10:00.002Z,73.11
2023-05-09T00:11:00.694Z,68.52
2023-05-09T00:12:00.040Z,71.28
2023-05-09T00:13:00.126Z,69.85
2023-05-09T00:14:00.035Z,68.74
2023-05-09T00:15:00.085Z,68.00
2023-05-09T00:16:00.093Z,66.95
2023-05-09T00:17:00.135Z,72.96
2023-05-09T00:18:00.061Z,68.24
2023-05-09T00:19:00.083Z,65.90
2023-05-09T00:20:00.073Z,70.49
2023-05-09T00:21:00.009Z,69.74
2023-05-09T00:22:00.042Z,67.97
2023-05-09T00:23:00.047Z,71.36
2023-05-09T00:24:00.026Z,68.75
2023-05-09T00:25:00.018Z,70.20
2023-05-09T00:26:00.035Z,64.39
2023-05-09T00:27:00.070Z,68.75
2023-05-09T00:28:00.026Z,68.00
2023-05-09T00:29:00.037Z,71.41
2023-05-09T00:30:00.041Z,67.38
2023-05-09T00:31:00.051Z,69.47
2023-05-09T00:32:00.236Z,71.99
2023-05-09T00:33:00.184Z,66.65
2023-05-09T00:34:00.065Z,65.15
2023-05-09T00:35:00.079Z,65.80
2023-05-09T00:36:00.093Z,67.60
2023-05-09T00:37:00.097Z,69.96
2023-05-09T00:38:00.147Z,66.83
2023-05-09T00:39:00.126Z,68.13
2023-05-09T00:40:00.180Z,68.72
2023-05-09T00:41:00.132Z,66.20
2023-05-09T00:42:00.153Z,67.44
2023-05-09T00:43:00.206Z,60.94
2023-05-09T00:44:00.167Z,66.94
2023-05-09T00:45:00.110Z,66.62
2023-05-09T00:46:00.204Z,62.44
2023-05-09T00:47:00.191Z,62.13
2023-05-09T00:48:00.245Z,66.23
2023-05-09T00:49:00.200Z,67.64
2023-05-09T00:50:00.115Z,64.24
2023-05-09T00:51:00.147Z,64.27
2023-05-09T00:52:00.166Z,62.36
2023-05-09T00:53:00.143Z,61.52
2023-05-09T00:54:00.190Z,66.13
2023-05-09T00:55:00.160Z,63.12
2023-05-09T00:56:00.238Z,65.63
2023-05-09T00:57:00.177Z,62.55
2023-05-09T00:58:00.183Z,57.51
2023-05-09T00:59:00.169Z,63.89
2023-05-09T01:00:00.232Z,66.27
2023-05-09T01:01:00.220Z,66.12
2023-05-09T01:02:00.218Z,65.45
2023-05-09T01:03:00.278Z,63.79
2023-05-09T01:04:00.196Z,60.92
2023-05-09T01:05:00.262Z,62.34
2023-05-09T01:06:00.242Z,59.56
2023-05-09T01:07:00.224Z,61.64
2023-05-09T01:08:00.195Z,63.04
2023-05-09T01:09:00.245Z,60.44
2023-05-09T01:10:00.160Z,62.64
2023-05-09T01:11:00.212Z,61.34
2023-05-09T01:12:00.253Z,62.76
2023-05-09T01:13:00.478Z,60.15
2023-05-09T01:14:00.216Z,53.61
2023-05-09T01:15:00.237Z,60.14
2023-05-09T01:16:00.340Z,62.14
2023-05-09T01:17:00.283Z,58.81
2023-05-09T01:18:00.278Z,60.04
2023-05-09T01:19:00.276Z,54.95
2023-05-09T01:20:00.234Z,59.95
2023-05-09T01:21:00.352Z,58.93
2023-05-09T01:22:00.249Z,58.82
2023-05-09T01:23:00.224Z,61.44
2023-05-09T01:24:00.226Z,59.70
2023-05-09T01:25:00.250Z,61.14
2023-05-09T01:26:00.258Z,56.64
2023-05-09T01:27:00.264Z,60.07
2023-05-09T01:28:00.740Z,59.38
2023-05-09T01:29:00.231Z,58.36
2023-05-09T01:30:00.251Z,60.24
2023-05-09T01:31:00.276Z,54.98
2023-05-09T01:32:00.298Z,56.32
2023-05-09T01:33:00.324Z,57.68
2023-05-09T01:34:00.247Z,57.52
2023-05-09T01:35:00.294Z,53.82
2023-05-09T01:36:00.235Z,60.96
2023-05-09T01:37:00.394Z,57.97
2023-05-09T01:38:00.302Z,59.18
2023-05-09T01:39:00.297Z,56.35
2023-05-09T01:40:00.312Z,59.19
2023-05-09T01:41:00.356Z,55.14
2023-05-09T01:42:00.761Z,53.13
2023-05-09T01:43:00.339Z,51.98
2023-05-09T01:44:00.373Z,56.56
2023-05-09T01:45:00.348Z,56.23
2023-05-09T01:46:00.383Z,52.38
2023-05-09T01:47:00.831Z,51.92
2023-05-09T01:48:00.499Z,56.53
2023-05-09T01:49:00.405Z,56.43
2023-05-09T01:50:00.369Z,54.14
2023-05-09T01:51:00.377Z,56.07
2023-05-09T01:52:00.384Z,51.82
2023-05-09T01:53:00.485Z,50.65
2023-05-09T01:54:00.399Z,53.03
2023-05-09T01:55:00.439Z,47.92
2023-05-09T01:56:00.495Z,56.09
2023-05-09T01:57:00.474Z,54.20
2023-05-09T01:58:00.471Z,53.83
2023-05-09T01:59:00.523Z,54.06
2023-05-09T02:00:00.489Z,54.03
2023-05-09T02:01:00.510Z,55.72
2023-05-09T02:02:00.830Z,52.50
2023-05-09T02:03:00.562Z,52.56
2023-05-09T02:04:00.493Z,49.61
2023-05-09T02:05:00.511Z,55.99
2023-05-09T02:06:00.484Z,54.22
2023-05-09T02:07:00.493Z,52.30
2023-05-09T02:08:00.532Z,54.25
2023-05-09T02:09:00.580Z,44.02
2023-05-09T02:10:00.512Z,49.84
2023-05-09T02:11:00.537Z,54.56
2023-05-09T02:12:00.769Z,53.87
2023-05-09T02:13:00.532Z,49.50
2023-05-09T02:14:00.481Z,54.31
2023-05-09T02:15:00.516Z,54.22
2023-05-09T02:16:00.508Z,51.59
2023-05-09T02:17:00.625Z,50.51
2023-05-09T02:18:00.586Z,50.24
2023-05-09T02:19:00.552Z,51.93
2023-05-09T02:20:00.559Z,50.76
2023-05-09T02:21:00.574Z,46.76
2023-05-09T02:22:01.770Z,53.34
2023-05-09T02:23:00.627Z,54.06
2023-05-09T02:24:00.636Z,50.32
2023-05-09T02:25:00.671Z,50.63
2023-05-09T02:26:00.567Z,51.39
2023-05-09T02:27:00.635Z,52.73
2023-05-09T02:28:00.647Z,52.29
2023-05-09T02:29:00.640Z,48.08
2023-05-09T02:30:00.665Z,51.74
2023-05-09T02:31:00.713Z,51.14
2023-05-09T02:32:00.723Z,54.19
2023-05-09T02:33:00.731Z,53.10
2023-05-09T02:34:00.698Z,52.95
2023-05-09T02:35:00.723Z,46.44
2023-05-09T02:36:00.708Z,46.22
2023-05-09T02:37:00.760Z,52.63
2023-05-09T02:38:00.746Z,49.89
2023-05-09T02:39:00.725Z,48.32
2023-05-09T02:40:00.687Z,51.01
2023-05-09T02:41:00.840Z,53.41
2023-05-09T02:42:00.754Z,47.98
2023-05-09T02:43:00.742Z,50.95
2023-05-09T02:44:00.708Z,50.88
2023-05-09T02:45:00.738Z,51.45
2023-05-09T02:46:00.794Z,50.43
2023-05-09T02:47:00.796Z,49.78
2023-05-09T02:48:00.795Z,48.32
2023-05-09T02:49:00.782Z,50.95
2023-05-09T02:50:00.754Z,47.18
2023-05-09T02:51:00.748Z,50.90
2023-05-09T02:52:00.769Z,50.40
2023-05-09T02:53:00.801Z,49.51
2023-05-09T02:54:00.774Z,46.46
2023-05-09T02:55:00.813Z,48.15
2023-05-09T02:56:00.779Z,49.76
2023-05-09T02:57:01.401Z,48.39
2023-05-09T02:58:12.808Z,46.39
2023-05-09T02:59:01.785Z,46.62
2023-05-09T03:00:00.804Z,46.79
2023-05-09T03:01:00.812Z,46.51
2023-05-09T03:02:00.796Z,45.58
2023-05-09T03:03:00.835Z,47.89
2023-05-09T03:04:00.803Z,45.48
2023-05-09T03:05:00.757Z,44.88
2023-05-09T03:06:00.754Z,44.81
2023-05-09T03:07:00.755Z,45.18
2023-05-09T03:08:00.727Z,45.00
2023-05-09T03:09:00.720Z,42.02
2023-05-09T03:10:00.709Z,44.18
2023-05-09T03:11:00.744Z,46.47
2023-05-09T03:12:00.727Z,45.42
2023-05-09T03:13:00.984Z,44.55
2023-05-09T03:14:00.707Z,46.49
2023-05-09T03:15:00.698Z,44.04
2023-05-09T03:16:00.748Z,44.32
2023-05-09T03:17:00.855Z,42.06
2023-05-09T03:18:00.743Z,43.71
2023-05-09T03:19:00.699Z,43.43
2023-05-09T03:20:03.209Z,43.81
2023-05-09T03:21:00.637Z,47.48
2023-05-09T03:22:00.660Z,45.14
2023-05-09T03:23:00.820Z,39.61
2023-05-09T03:24:00.638Z,40.50
2023-05-09T03:25:00.637Z,39.10
2023-05-09T03:26:00.631Z,42.87
2023-05-09T03:27:00.616Z,41.65
2023-05-09T03:28:00.646Z,44.06
2023-05-09T03:29:00.675Z,41.85
2023-05-09T03:30:00.604Z,42.36
2023-05-09T03:31:00.641Z,41.68
2023-05-09T03:32:00.626Z,40.88
2023-05-09T03:33:00.623Z,37.79
2023-05-09T03:34:00.530Z,42.06
2023-05-09T03:35:00.605Z,42.86
2023-05-09T03:36:00.543Z,42.65
2023-05-09T03:37:00.541Z,40.75
2023-05-09T03:38:00.560Z,39.77
2023-05-09T03:39:00.565Z,36.46
2023-05-09T03:40:00.502Z,39.03
2023-05-09T03:41:00.521Z,42.89
2023-05-09T03:42:00.550Z,40.55
2023-05-09T03:43:00.491Z,42.29
2023-05-09T03:44:00.485Z,39.54
2023-05-09T03:45:00.603Z,42.63
2023-05-09T03:46:00.484Z,38.25
2023-05-09T03:47:00.555Z,37.77
2023-05-09T03:48:00.546Z,40.79
2023-05-09T03:49:00.456Z,36.11
2023-05-09T03:50:00.472Z,41.09
2023-05-09T03:51:00.483Z,37.89
2023-05-09T03:52:00.460Z,40.68
2023-05-09T03:53:00.434Z,39.24
2023-05-09T03:54:00.457Z,34.57
2023-05-09T03:55:00.429Z,37.57
2023-05-09T03:56:00.387Z,33.34
2023-05-09T03:57:00.419Z,39.78
2023-05-09T03:58:00.468Z,41.01
2023-05-09T03:59:00.388Z,41.13
2023-05-09T04:00:00.415Z,35.21
2023-05-09T04:01:00.488Z,37.12
2023-05-09T04:02:00.450Z,39.91
2023-05-09T04:03:00.471Z,34.54
2023-05-09T04:04:00.439Z,39.94
2023-05-09T04:05:00.380Z,39.32
2023-05-09T04:06:00.360Z,33.51
2023-05-09T04:07:00.377Z,38.75
2023-05-09T04:08:00.345Z,36.84
2023-05-09T04:09:00.335Z,39.17
2023-05-09T04:10:00.325Z,39.12
2023-05-09T04:11:00.324Z,36.86
2023-05-09T04:12:00.315Z,40.50
2023-05-09T04:13:00.414Z,31.06
2023-05-09T04:14:00.296Z,38.77
2023-05-09T04:15:00.282Z,39.07
2023-05-09T04:16:00.309Z,37.68
2023-05-09T04:17:00.422Z,36.38
2023-05-09T04:18:00.369Z,36.33
2023-05-09T04:19:00.288Z,33.00
2023-05-09T04:20:00.300Z,35.79
2023-05-09T04:21:00.247Z,37.17
2023-05-09T04:22:00.253Z,36.29
2023-05-09T04:23:00.226Z,35.34
2023-05-09T04:24:00.254Z,38.53
2023-05-09T04:25:00.217Z,33.18
2023-05-09T04:26:00.232Z,30.85
2023-05-09T04:27:00.210Z,36.33
2023-05-09T04:28:00.255Z,37.49
2023-05-09T04:29:00.212Z,37.11
2023-05-09T04:30:00.201Z,35.59
2023-05-09T04:31:00.291Z,35.62
2023-05-09T04:32:00.374Z,36.02
2023-05-09T04:33:00.316Z,34.45
2023-05-09T04:34:00.204Z,34.02
2023-05-09T04:35:00.195Z,33.98
2023-05-09T04:36:00.130Z,34.77
2023-05-09T04:37:00.174Z,29.99
2023-05-09T04:38:00.182Z,36.31
2023-05-09T04:39:00.164Z,34.91
2023-05-09T04:40:00.172Z,35.42
2023-05-09T04:41:00.185Z,30.44
2023-05-09T04:42:00.130Z,33.81
2023-05-09T04:43:00.139Z,33.37
2023-05-09T04:44:00.127Z,32.80
2023-05-09T04:45:00.158Z,33.13
2023-05-09T04:46:00.157Z,35.09
2023-05-09T04:47:00.130Z,28.41
2023-05-09T04:48:00.140Z,34.37
2023-05-09T04:49:00.161Z,34.28
2023-05-09T04:50:00.163Z,28.72
2023-05-09T04:51:00.062Z,29.73
2023-05-09T04:52:00.049Z,28.36
2023-05-09T04:53:00.116Z,32.44
2023-05-09T04:54:00.047Z,29.92
2023-05-09T04:55:00.046Z,29.44
2023-05-09T04:56:00.075Z,31.10
2023-05-09T04:57:09.990Z,34.39
2023-05-09T04:58:01.071Z,34.69
2023-05-09T04:59:00.046Z,34.50
2023-05-09T05:00:00.005Z,32.35
2023-05-09T05:00:59.990Z,34.54
2023-05-09T05:02:00.076Z,32.45
2023-05-09T05:03:00.437Z,29.63
2023-05-09T05:04:00.011Z,32.20
2023-05-09T05:05:11.087Z,31.45
2023-05-09T05:06:01.027Z,31.77
2023-05-09T05:06:59.988Z,31.92
2023-05-09T05:07:59.994Z,32.44
2023-05-09T05:09:00.003Z,31.95
2023-05-09T05:09:59.965Z,33.71
2023-05-09T05:10:59.956Z,34.58
2023-05-09T05:12:02.982Z,33.60
2023-05-09T05:12:59.949Z,33.78
2023-05-09T05:13:59.948Z,31.80
2023-05-09T05:14:59.886Z,31.98
2023-05-09T05:15:59.937Z,30.86
2023-05-09T05:16:59.908Z,28.99
2023-05-09T05:17:59.940Z,28.62
2023-05-09T05:18:59.912Z,30.66
2023-05-09T05:19:59.868Z,29.03
2023-05-09T05:20:59.951Z,31.13
2023-05-09T05:21:59.883Z,31.73
2023-05-09T05:22:59.899Z,32.58
2023-05-09T05:23:59.859Z,29.71
2023-05-09T05:24:59.822Z,29.59
2023-05-09T05:25:59.855Z,30.42
2023-05-09T05:26:59.834Z,29.33
2023-05-09T05:27:59.936Z,32.38
2023-05-09T05:28:59.824Z,31.48
2023-05-09T05:29:59.778Z,31.33
2023-05-09T05:30:59.801Z,30.16
2023-05-09T05:32:00.014Z,29.45
2023-05-09T05:32:59.823Z,33.73
2023-05-09T05:33:59.787Z,30.99
2023-05-09T05:34:59.803Z,30.77
2023-05-09T05:35:59.783Z,32.45
2023-05-09T05:36:59.793Z,29.49
2023-05-09T05:37:59.785Z,32.35
2023-05-09T05:38:59.793Z,30.99
2023-05-09T05:39:59.827Z,31.58
2023-05-09T05:40:59.733Z,28.51
2023-05-09T05:41:59.750Z,30.38
2023-05-09T05:42:59.920Z,31.05
2023-05-09T05:43:59.759Z,28.36
2023-05-09T05:44:59.723Z,31.96
2023-05-09T05:45:59.778Z,31.93
2023-05-09T05:46:59.704Z,32.65
2023-05-09T05:47:59.781Z,31.82
2023-05-09T05:48:59.763Z,32.61
2023-05-09T05:49:59.676Z,35.53
2023-05-09T05:50:59.659Z,34.33
2023-05-09T05:51:59.678Z,33.90
2023-05-09T05:52:59.970Z,33.29
2023-05-09T05:53:59.656Z,33.10
2023-05-09T05:54:59.692Z,33.78
2023-05-09T05:55:59.714Z,32.32
2023-05-09T05:56:59.670Z,34.24
2023-05-09T05:57:59.917Z,35.06
2023-05-09T05:58:59.616Z,34.83
2023-05-09T05:59:59.617Z,31.50
2023-05-09T06:00:59.618Z,30.45
2023-05-09T06:01:59.672Z,28.46
2023-05-09T06:02:59.711Z,27.10
2023-05-09T06:03:59.755Z,32.14
2023-05-09T06:04:59.588Z,41.18
2023-05-09T06:05:59.588Z,40.10
2023-05-09T06:06:59.595Z,46.43
2023-05-09T06:07:59.611Z,49.77
2023-05-09T06:08:59.690Z,48.71
2023-05-09T06:09:59.546Z,55.11
2023-05-09T06:10:59.599Z,52.26
2023-05-09T06:11:59.553Z,57.56
2023-05-09T06:12:59.588Z,60.62
2023-05-09T06:13:59.547Z,69.32
2023-05-09T06:14:59.559Z,65.30
2023-05-09T06:16:07.833Z,69.41
2023-05-09T06:17:00.524Z,69.54
2023-05-09T06:17:59.600Z,66.77
2023-05-09T06:18:59.551Z,65.99
2023-05-09T06:19:59.556Z,62.56
2023-05-09T06:20:59.564Z,71.24
2023-05-09T06:21:59.476Z,72.71
2023-05-09T06:22:59.525Z,76.20
2023-05-09T06:24:09.711Z,78.53
2023-05-09T06:25:00.646Z,78.81
2023-05-09T06:25:59.454Z,78.69
2023-05-09T06:26:59.522Z,78.93
2023-05-09T06:27:59.466Z,81.64
2023-05-09T06:28:59.432Z,96.13
2023-05-09T06:29:59.748Z,85.70
2023-05-09T06:30:59.462Z,86.16
2023-05-09T06:31:59.754Z,85.97
2023-05-09T06:32:59.563Z,93.05
2023-05-09T06:33:59.543Z,97.88
2023-05-09T06:34:59.568Z,101.40
2023-05-09T06:35:59.654Z,105.16
2023-05-09T06:36:59.698Z,99.76
2023-05-09T06:37:59.767Z,104.00
2023-05-09T06:38:59.785Z,109.81
2023-05-09T06:39:59.916Z,111.19
2023-05-09T06:41:00.083Z,108.38
2023-05-09T06:42:00.012Z,106.44
2023-05-09T06:43:00.417Z,111.51
2023-05-09T06:44:00.123Z,111.10
2023-05-09T06:45:00.222Z,118.87
2023-05-09T06:46:00.290Z,110.76
2023-05-09T06:47:00.190Z,112.43
2023-05-09T06:48:00.481Z,116.36
2023-05-09T06:49:00.298Z,121.33
2023-05-09T06:50:00.325Z,118.64
2023-05-09T06:51:00.377Z,126.87
2023-05-09T06:52:00.429Z,131.25
2023-05-09T06:53:00.436Z,123.61
2023-05-09T06:54:00.545Z,119.06
2023-05-09T06:55:00.525Z,125.61
2023-05-09T06:56:00.632Z,124.76
2023-05-09T06:57:00.690Z,134.32
2023-05-09T06:58:00.961Z,144.52
2023-05-09T06:59:00.694Z,145.26
2023-05-09T07:00:00.790Z,144.18
2023-05-09T07:01:00.793Z,145.83
2023-05-09T07:02:00.882Z,151.88
2023-05-09T07:03:00.903Z,149.59
2023-05-09T07:04:00.922Z,157.15
2023-05-09T07:05:01.041Z,149.64
2023-05-09T07:06:00.986Z,151.38
2023-05-09T07:07:00.996Z,144.97
2023-05-09T07:08:01.116Z,146.43
2023-05-09T07:09:01.118Z,149.20
2023-05-09T07:10:10.626Z,153.28
2023-05-09T07:11:02.119Z,153.36
2023-05-09T07:12:01.166Z,150.27
2023-05-09T07:13:01.194Z,148.87
2023-05-09T07:14:01.121Z,151.21
2023-05-09T07:15:01.058Z,154.08
2023-05-09T07:16:01.079Z,153.00
2023-05-09T07:17:18.212Z,155.54
2023-05-09T07:18:02.073Z,155.81
2023-05-09T07:19:01.003Z,156.10
2023-05-09T07:20:01.037Z,157.45
2023-05-09T07:21:01.030Z,159.15
2023-05-09T07:22:00.988Z,155.74
2023-05-09T07:23:01.078Z,152.11
2023-05-09T07:24:01.468Z,153.55
2023-05-09T07:25:01.020Z,158.77
2023-05-09T07:26:00.983Z,156.95
2023-05-09T07:27:00.966Z,160.31
2023-05-09T07:28:00.928Z,161.60
2023-05-09T07:29:01.072Z,164.02
2023-05-09T07:30:00.954Z,157.20
2023-05-09T07:31:01.979Z,150.58
2023-05-09T07:32:01.021Z,156.67
2023-05-09T07:33:01.545Z,158.27
2023-05-09T07:34:00.913Z,147.78
2023-05-09T07:35:00.905Z,136.24
2023-05-09T07:36:00.917Z,140.14
2023-05-09T07:37:00.888Z,152.71
2023-05-09T07:38:00.903Z,143.19
2023-05-09T07:39:00.944Z,144.01
2023-05-09T07:40:00.913Z,147.75
2023-05-09T07:41:00.869Z,151.47
2023-05-09T07:42:00.863Z,148.97
2023-05-09T07:43:00.876Z,144.34
2023-05-09T07:44:00.933Z,146.64
2023-05-09T07:45:01.027Z,131.93
2023-05-09T07:46:01.037Z,121.12
2023-05-09T07:47:01.061Z,97.64
2023-05-09T07:48:01.094Z,97.95
2023-05-09T07:49:01.439Z,94.57
2023-05-09T07:50:01.195Z,85.86
2023-05-09T07:51:01.219Z,89.41
2023-05-09T07:52:01.296Z,89.37
2023-05-09T07:53:01.305Z,88.01
2023-05-09T07:54:01.381Z,82.93
2023-05-09T07:55:01.419Z,89.07
2023-05-09T07:56:01.446Z,85.58
2023-05-09T07:57:01.538Z,84.51
2023-05-09T07:58:01.531Z,88.31
2023-05-09T07:59:01.621Z,87.54
2023-05-09T08:00:01.731Z,86.70
2023-05-09T08:01:01.817Z,86.98
2023-05-09T08:02:01.806Z,79.62
2023-05-09T08:03:01.936Z,80.01
2023-05-09T08:04:02.021Z,80.11
2023-05-09T08:05:01.933Z,83.22
2023-05-09T08:06:01.961Z,80.78
2023-05-09T08:07:02.056Z,80.59
2023-05-09T08:08:02.078Z,81.89
2023-05-09T08:09:02.129Z,88.85
2023-05-09T08:10:02.204Z,85.17
2023-05-09T08:11:02.257Z,93.00
2023-05-09T08:12:02.287Z,93.12
2023-05-09T08:13:02.434Z,92.36
2023-05-09T08:14:02.437Z,92.84
2023-05-09T08:15:02.447Z,87.37
2023-05-09T08:16:02.584Z,90.98
2023-05-09T08:17:02.656Z,87.56
2023-05-09T08:18:02.679Z,93.73
2023-05-09T08:19:02.988Z,89.88
2023-05-09T08:20:02.753Z,86.90
2023-05-09T08:21:02.778Z,86.62
2023-05-09T08:22:02.868Z,93.95
2023-05-09T08:23:02.924Z,96.70
2023-05-09T08:24:02.975Z,91.32
2023-05-09T08:25:03.026Z,93.72
2023-05-09T08:26:03.107Z,91.01
2023-05-09T08:27:03.121Z,92.34
2023-05-09T08:28:03.220Z,100.14
2023-05-09T08:29:03.467Z,97.16
2023-05-09T08:30:03.306Z,99.49
2023-05-09T08:31:03.470Z,101.44
2023-05-09T08:32:03.416Z,104.88
2023-05-09T08:33:03.630Z,102.18
2023-05-09T08:34:03.532Z,106.68
2023-05-09T08:35:03.602Z,109.79
2023-05-09T08:36:03.647Z,102.74
2023-05-09T08:37:03.676Z,94.67
2023-05-09T08:38:03.777Z,89.95
2023-05-09T08:39:03.976Z,96.07
2023-05-09T08:40:03.843Z,92.66
2023-05-09T08:41:03.907Z,96.61
2023-05-09T08:42:03.999Z,93.17
2023-05-09T08:43:04.044Z,90.51
2023-05-09T08:44:04.088Z,93.27
2023-05-09T08:45:04.130Z,99.22
2023-05-09T08:46:04.219Z,100.54
2023-05-09T08:47:04.285Z,90.01
2023-05-09T08:48:04.329Z,85.15
2023-05-09T08:49:04.726Z,81.31
2023-05-09T08:50:04.387Z,82.80
2023-05-09T08:51:04.469Z,90.76
2023-05-09T08:52:04.508Z,83.42
2023-05-09T08:53:04.540Z,84.87
2023-05-09T08:54:04.999Z,78.29
2023-05-09T08:55:04.701Z,71.87
2023-05-09T08:56:04.742Z,71.56
2023-05-09T08:57:04.821Z,66.11
2023-05-09T08:58:04.837Z,68.51
2023-05-09T08:59:04.876Z,63.67
2023-05-09T09:00:04.932Z,62.85
2023-05-09T09:01:05.063Z,60.05
2023-05-09T09:02:05.114Z,53.05
2023-05-09T09:03:05.144Z,60.65
2023-05-09T09:04:05.183Z,67.50
2023-05-09T09:05:05.867Z,56.35
2023-05-09T09:06:05.321Z,56.25
2023-05-09T09:07:05.333Z,61.00
2023-05-09T09:08:05.388Z,62.62
2023-05-09T09:09:05.519Z,67.66
2023-05-09T09:10:05.510Z,75.33
2023-05-09T09:11:05.534Z,66.96
2023-05-09T09:12:05.707Z,66.87
2023-05-09T09:13:05.702Z,66.57
2023-05-09T09:14:05.747Z,71.39
2023-05-09T09:15:05.841Z,77.77
2023-05-09T09:16:05.910Z,86.97
2023-05-09T09:17:05.905Z,86.71
2023-05-09T09:18:06.074Z,98.38
2023-05-09T09:19:06.492Z,91.91
2023-05-09T09:20:06.100Z,98.65
2023-05-09T09:21:06.219Z,101.27
2023-05-09T09:22:06.170Z,103.33
2023-05-09T09:23:06.205Z,105.56
2023-05-09T09:24:06.525Z,110.18
2023-05-09T09:25:06.339Z,103.81
2023-05-09T09:26:06.433Z,106.18
2023-05-09T09:27:06.480Z,105.57
2023-05-09T09:28:06.510Z,107.31
2023-05-09T09:29:06.534Z,101.24
2023-05-09T09:30:06.583Z,107.00
2023-05-09T09:31:06.613Z,107.25
2023-05-09T09:32:06.687Z,111.07
2023-05-09T09:33:06.705Z,113.70
2023-05-09T09:34:06.795Z,112.61
2023-05-09T09:35:06.859Z,112.99
2023-05-09T09:36:06.838Z,105.40
2023-05-09T09:37:06.888Z,112.42
2023-05-09T09:38:06.881Z,107.96
2023-05-09T09:39:06.988Z,108.49
2023-05-09T09:40:06.977Z,112.61
2023-05-09T09:41:07.015Z,110.93
2023-05-09T09:42:07.059Z,114.78
2023-05-09T09:43:07.103Z,116.30
2023-05-09T09:44:07.521Z,124.31
2023-05-09T09:45:07.181Z,114.66
2023-05-09T09:46:07.246Z,116.34
2023-05-09T09:47:07.288Z,114.72
2023-05-09T09:48:07.405Z,111.55
2023-05-09T09:49:07.344Z,115.92
2023-05-09T09:50:07.424Z,116.24
2023-05-09T09:51:07.438Z,114.09
2023-05-09T09:52:07.502Z,109.77
2023-05-09T09:53:07.629Z,105.48
2023-05-09T09:54:08.006Z,111.34
2023-05-09T09:55:07.563Z,120.07
2023-05-09T09:56:07.628Z,122.06
2023-05-09T09:57:07.633Z,124.49
2023-05-09T09:58:07.680Z,123.58
2023-05-09T09:59:07.737Z,129.07
2023-05-09T10:00:07.724Z,128.24
2023-05-09T10:01:07.918Z,120.48
2023-05-09T10:02:08.538Z,113.16
2023-05-09T10:03:07.906Z,105.19
2023-05-09T10:04:07.903Z,100.17
2023-05-09T10:05:07.955Z,97.48
2023-05-09T10:06:07.974Z,90.38
2023-05-09T10:07:08.046Z,89.01
2023-05-09T10:08:08.095Z,88.59
2023-05-09T10:09:08.616Z,97.84
2023-05-09T10:10:08.206Z,104.80
2023-05-09T10:11:08.249Z,102.37
2023-05-09T10:12:08.308Z,109.53
2023-05-09T10:13:08.383Z,112.31
2023-05-09T10:14:08.506Z,122.08
2023-05-09T10:15:08.461Z,122.94
2023-05-09T10:16:08.489Z,128.87
2023-05-09T10:17:09.139Z,127.67
2023-05-09T10:18:08.641Z,128.95
2023-05-09T10:19:09.106Z,129.80
2023-05-09T10:20:08.619Z,133.15
2023-05-09T10:21:08.596Z,133.21
2023-05-09T10:22:08.670Z,134.22
2023-05-09T10:23:08.666Z,140.31
2023-05-09T10:24:09.015Z,146.08
2023-05-09T10:25:08.817Z,147.43
2023-05-09T10:26:08.721Z,146.66
2023-05-09T10:27:08.747Z,145.70
2023-05-09T10:28:08.804Z,140.91
2023-05-09T10:29:08.820Z,145.29
2023-05-09T10:30:08.775Z,149.36
2023-05-09T10:31:09.113Z,151.22
2023-05-09T10:32:08.802Z,149.11
2023-05-09T10:33:08.877Z,147.83
2023-05-09T10:34:08.848Z,143.97
2023-05-09T10:35:08.850Z,145.73
2023-05-09T10:36:08.864Z,144.85
2023-05-09T10:37:08.901Z,145.42
2023-05-09T10:38:08.888Z,146.42
2023-05-09T10:39:09.010Z,152.05
2023-05-09T10:40:08.913Z,149.80
2023-05-09T10:41:08.972Z,148.96
2023-05-09T10:42:08.958Z,153.42
2023-05-09T10:43:08.934Z,154.91
2023-05-09T10:44:08.949Z,145.22
2023-05-09T10:45:08.969Z,145.90
2023-05-09T10:46:08.979Z,148.20
2023-05-09T10:47:09.001Z,152.36
2023-05-09T10:48:09.539Z,153.57
2023-05-09T10:49:09.044Z,154.71
2023-05-09T10:50:09.562Z,155.30
2023-05-09T10:51:09.019Z,155.45
2023-05-09T10:52:09.017Z,149.22
2023-05-09T10:53:09.088Z,147.40
2023-05-09T10:54:09.080Z,152.53
2023-05-09T10:55:09.541Z,150.55
2023-05-09T10:56:09.085Z,154.02
2023-05-09T10:57:09.165Z,152.11
2023-05-09T10:58:09.100Z,152.96
2023-05-09T10:59:09.063Z,164.26
2023-05-09T11:00:09.517Z,156.79
2023-05-09T11:01:09.126Z,157.04
2023-05-09T11:02:09.088Z,164.58
2023-05-09T11:03:09.123Z,161.31
2023-05-09T11:04:09.149Z,159.45
2023-05-09T11:05:10.067Z,160.40
2023-05-09T11:06:09.162Z,163.17
2023-05-09T11:07:09.134Z,166.63
2023-05-09T11:08:09.182Z,166.30
2023-05-09T11:09:09.168Z,164.42
2023-05-09T11:10:09.548Z,167.21
2023-05-09T11:11:09.216Z,167.68
2023-05-09T11:12:09.222Z,164.55
2023-05-09T11:13:09.376Z,158.33
2023-05-09T11:14:09.223Z,154.77
2023-05-09T11:15:09.580Z,154.21
2023-05-09T11:16:09.283Z,150.49
2023-05-09T11:17:09.258Z,158.85
2023-05-09T11:18:09.332Z,145.59
2023-05-09T11:19:09.268Z,152.27
2023-05-09T11:20:09.570Z,150.34
2023-05-09T11:21:09.320Z,147.70
2023-05-09T11:22:09.307Z,145.51
2023-05-09T11:23:09.340Z,136.15
2023-05-09T11:24:09.345Z,127.31
2023-05-09T11:25:09.540Z,135.39
2023-05-09T11:26:09.350Z,131.99
2023-05-09T11:27:09.410Z,135.27
2023-05-09T11:28:09.415Z,142.01
2023-05-09T11:29:09.664Z,135.07
2023-05-09T11:30:09.520Z,134.21
2023-05-09T11:31:09.467Z,136.20
2023-05-09T11:32:09.561Z,137.40
2023-05-09T11:33:09.586Z,123.66
2023-05-09T11:34:09.515Z,110.42
2023-05-09T11:35:10.282Z,113.56
2023-05-09T11:36:09.601Z,122.54
2023-05-09T11:37:09.707Z,137.65
2023-05-09T11:38:09.706Z,144.01
2023-05-09T11:39:09.666Z,144.86
2023-05-09T11:40:09.727Z,154.06
2023-05-09T11:41:09.736Z,156.17
2023-05-09T11:42:09.775Z,157.97
2023-05-09T11:43:09.763Z,159.99
2023-05-09T11:44:09.798Z,164.45
2023-05-09T11:45:10.165Z,165.27
2023-05-09T11:46:09.843Z,163.01
2023-05-09T11:47:09.879Z,164.09
2023-05-09T11:48:10.013Z,164.50
2023-05-09T11:49:11.969Z,162.94
2023-05-09T11:50:09.941Z,164.05
2023-05-09T11:51:09.983Z,165.92
2023-05-09T11:52:10.033Z,162.05
2023-05-09T11:53:10.040Z,165.72
2023-05-09T11:54:10.059Z,165.04
2023-05-09T11:55:12.496Z,169.76
2023-05-09T11:56:10.058Z,166.09
2023-05-09T11:57:10.038Z,166.48
2023-05-09T11:58:10.054Z,166.69
2023-05-09T11:59:10.078Z,165.29
2023-05-09T12:00:10.085Z,163.53
2023-05-09T12:01:11.808Z,164.34
2023-05-09T12:02:10.086Z,164.59
2023-05-09T12:03:10.234Z,164.88
2023-05-09T12:04:10.028Z,165.06
2023-05-09T12:05:10.097Z,164.57
2023-05-09T12:06:09.989Z,163.58
2023-05-09T12:07:09.971Z,167.30
2023-05-09T12:08:09.989Z,163.12
2023-05-09T12:09:09.943Z,165.10
2023-05-09T12:10:10.113Z,165.67
2023-05-09T12:11:10.005Z,163.01
2023-05-09T12:12:10.018Z,164.23
2023-05-09T12:13:10.087Z,163.87
2023-05-09T12:14:10.042Z,162.35
2023-05-09T12:15:10.138Z,165.40
2023-05-09T12:16:10.112Z,164.71
2023-05-09T12:17:10.212Z,165.37
2023-05-09T12:18:10.236Z,165.38
2023-05-09T12:19:10.190Z,164.66
2023-05-09T12:20:10.576Z,166.50
2023-05-09T12:21:10.216Z,162.65
2023-05-09T12:22:10.257Z,163.99
2023-05-09T12:23:10.305Z,162.39
2023-05-09T12:24:10.396Z,166.11
2023-05-09T12:25:10.730Z,163.08
2023-05-09T12:26:10.415Z,165.75
2023-05-09T12:27:11.094Z,165.26
2023-05-09T12:28:10.458Z,159.83
2023-05-09T12:29:10.470Z,162.47
2023-05-09T12:30:10.755Z,164.85
2023-05-09T12:31:10.592Z,169.45
2023-05-09T12:32:10.560Z,162.43
2023-05-09T12:33:10.822Z,163.08
2023-05-09T12:34:11.608Z,166.38
2023-05-09T12:35:10.997Z,165.34
2023-05-09T12:36:10.685Z,164.94
2023-05-09T12:37:10.723Z,160.76
2023-05-09T12:38:10.749Z,164.18
2023-05-09T12:39:10.817Z,162.87
2023-05-09T12:40:10.838Z,163.74
2023-05-09T12:41:21.885Z,161.00
2023-05-09T12:42:11.816Z,161.24
2023-05-09T12:43:10.788Z,161.51
2023-05-09T12:44:10.786Z,161.79